createdAt,value
2023-05-26T00:00:45.324Z,57.92
2023-05-26T00:01:45.516Z,58.00
2023-05-26T00:02:45.666Z,58.57
2023-05-26T00:03:45.894Z,58.33
2023-05-26T00:04:45.891Z,57.14
2023-05-26T00:05:46.297Z,56.56
2023-05-26T00:06:46.017Z,56.67
2023-05-26T00:07:46.133Z,54.68
2023-05-26T00:08:46.299Z,56.33
2023-05-26T00:09:46.384Z,56.22
2023-05-26T00:10:46.527Z,57.37
2023-05-26T00:11:46.622Z,57.33
2023-05-26T00:12:46.729Z,55.92
2023-05-26T00:13:46.839Z,55.55
2023-05-26T00:14:46.935Z,55.62
2023-05-26T00:15:47.366Z,55.85
2023-05-26T00:16:47.226Z,54.33
2023-05-26T00:17:47.350Z,55.51
2023-05-26T00:18:47.473Z,56.18
2023-05-26T00:19:47.597Z,55.04
2023-05-26T00:20:47.760Z,54.33
2023-05-26T00:21:47.852Z,55.40
2023-05-26T00:22:47.969Z,55.85
2023-05-26T00:23:48.066Z,55.81
2023-05-26T00:24:48.213Z,54.93
2023-05-26T00:25:48.379Z,54.37
2023-05-26T00:26:48.430Z,54.02
2023-05-26T00:27:48.594Z,54.02
2023-05-26T00:28:48.675Z,53.95
2023-05-26T00:29:48.817Z,53.71
2023-05-26T00:30:48.994Z,54.12
2023-05-26T00:31:49.202Z,54.05
2023-05-26T00:32:49.207Z,55.01
2023-05-26T00:33:49.277Z,54.40
2023-05-26T00:34:49.428Z,55.44
2023-05-26T00:35:49.529Z,56.26
2023-05-26T00:36:49.736Z,55.44
2023-05-26T00:37:49.787Z,56.29
2023-05-26T00:38:49.929Z,56.37
2023-05-26T00:39:50.043Z,55.74
2023-05-26T00:40:50.165Z,56.03
2023-05-26T00:41:50.385Z,56.14
2023-05-26T00:42:50.433Z,55.70
2023-05-26T00:43:50.531Z,55.85
2023-05-26T00:44:50.687Z,55.85
2023-05-26T00:45:50.873Z,55.96
2023-05-26T00:46:51.106Z,54.83
2023-05-26T00:47:51.179Z,54.97
2023-05-26T00:48:51.191Z,55.37
2023-05-26T00:49:51.341Z,53.98
2023-05-26T00:50:51.510Z,52.93
2023-05-26T00:51:51.645Z,53.47
2023-05-26T00:52:51.719Z,51.28
2023-05-26T00:53:51.856Z,52.37
2023-05-26T00:54:51.959Z,53.06
2023-05-26T00:55:52.073Z,53.43
2023-05-26T00:56:52.169Z,50.88
2023-05-26T00:57:52.291Z,50.60
2023-05-26T00:58:52.358Z,52.79
2023-05-26T00:59:52.496Z,53.20
2023-05-26T01:00:52.665Z,52.66
2023-05-26T01:01:52.804Z,50.54
2023-05-26T01:02:52.974Z,51.06
2023-05-26T01:03:53.112Z,51.09
2023-05-26T01:04:53.246Z,50.76
2023-05-26T01:05:53.356Z,51.09
2023-05-26T01:06:53.499Z,51.06
2023-05-26T01:07:53.647Z,51.63
2023-05-26T01:08:53.783Z,50.78
2023-05-26T01:09:53.929Z,51.34
2023-05-26T01:10:54.025Z,49.76
2023-05-26T01:11:54.169Z,50.12
2023-05-26T01:12:54.323Z,49.91
2023-05-26T01:13:54.453Z,49.62
2023-05-26T01:14:54.643Z,48.28
2023-05-26T01:15:54.737Z,49.50
2023-05-26T01:16:54.884Z,49.35
2023-05-26T01:17:55.079Z,49.24
2023-05-26T01:18:55.166Z,49.41
2023-05-26T01:19:55.371Z,49.18
2023-05-26T01:20:55.456Z,48.95
2023-05-26T01:21:55.576Z,49.04
2023-05-26T01:22:55.726Z,48.17
2023-05-26T01:23:55.828Z,47.59
2023-05-26T01:24:55.979Z,47.97
2023-05-26T01:25:56.127Z,48.67
2023-05-26T01:26:56.253Z,48.33
2023-05-26T01:27:56.381Z,48.14
2023-05-26T01:28:56.524Z,48.06
2023-05-26T01:29:56.686Z,48.25
2023-05-26T01:30:56.784Z,48.98
2023-05-26T01:31:56.883Z,49.18
2023-05-26T01:32:57.017Z,47.59
2023-05-26T01:33:57.183Z,47.59
2023-05-26T01:34:57.269Z,47.01
2023-05-26T01:35:57.382Z,46.85
2023-05-26T01:36:57.475Z,47.11
2023-05-26T01:37:57.627Z,48.06
2023-05-26T01:38:57.756Z,47.27
2023-05-26T01:39:57.944Z,46.80
2023-05-26T01:40:58.053Z,47.89
2023-05-26T01:41:58.230Z,47.57
2023-05-26T01:42:58.299Z,46.80
2023-05-26T01:43:58.404Z,45.88
2023-05-26T01:44:58.559Z,45.44
2023-05-26T01:45:58.683Z,44.57
2023-05-26T01:46:58.779Z,45.05
2023-05-26T01:47:59.059Z,45.24
2023-05-26T01:48:59.128Z,46.03
2023-05-26T01:49:59.219Z,46.85
2023-05-26T01:50:59.323Z,47.70
2023-05-26T01:51:59.410Z,47.19
2023-05-26T01:52:59.545Z,47.03
2023-05-26T01:53:59.731Z,45.48
2023-05-26T01:54:59.806Z,43.60
2023-05-26T01:55:59.966Z,43.64
2023-05-26T01:57:00.065Z,44.10
2023-05-26T01:58:00.213Z,45.29
2023-05-26T01:59:00.391Z,45.19
2023-05-26T02:00:00.506Z,43.46
2023-05-26T02:01:00.655Z,43.74
2023-05-26T02:02:00.830Z,43.46
2023-05-26T02:03:00.999Z,43.96
2023-05-26T02:04:01.095Z,44.81
2023-05-26T02:05:01.162Z,45.14
2023-05-26T02:06:01.336Z,45.19
2023-05-26T02:07:01.438Z,44.62
2023-05-26T02:08:01.554Z,43.42
2023-05-26T02:09:01.694Z,43.64
2023-05-26T02:10:01.828Z,44.38
2023-05-26T02:11:01.946Z,45.14
2023-05-26T02:12:02.127Z,44.06
2023-05-26T02:13:02.295Z,44.47
2023-05-26T02:14:02.431Z,45.19
2023-05-26T02:15:02.482Z,44.38
2023-05-26T02:16:02.627Z,44.66
2023-05-26T02:17:02.733Z,44.62
2023-05-26T02:18:02.826Z,44.90
2023-05-26T02:19:02.951Z,44.85
2023-05-26T02:20:03.179Z,45.29
2023-05-26T02:21:03.203Z,45.34
2023-05-26T02:22:03.448Z,45.24
2023-05-26T02:23:03.470Z,44.33
2023-05-26T02:24:03.619Z,44.10
2023-05-26T02:25:03.757Z,44.47
2023-05-26T02:26:03.857Z,43.78
2023-05-26T02:27:04.017Z,44.01
2023-05-26T02:28:04.152Z,44.19
2023-05-26T02:29:04.239Z,43.55
2023-05-26T02:30:04.411Z,43.78
2023-05-26T02:31:04.544Z,43.24
2023-05-26T02:32:04.718Z,43.33
2023-05-26T02:33:04.783Z,43.92
2023-05-26T02:34:04.869Z,43.60
2023-05-26T02:35:05.018Z,43.06
2023-05-26T02:36:05.194Z,43.55
2023-05-26T02:37:05.265Z,43.78
2023-05-26T02:38:05.437Z,43.69
2023-05-26T02:39:05.526Z,42.89
2023-05-26T02:40:05.694Z,42.16
2023-05-26T02:41:05.834Z,40.61
2023-05-26T02:42:05.922Z,40.11
2023-05-26T02:43:06.113Z,39.21
2023-05-26T02:44:06.229Z,39.84
2023-05-26T02:45:06.351Z,40.46
2023-05-26T02:46:06.512Z,40.07
2023-05-26T02:47:06.572Z,39.47
2023-05-26T02:48:06.710Z,39.77
2023-05-26T02:49:06.841Z,38.56
2023-05-26T02:50:06.968Z,38.25
2023-05-26T02:51:07.117Z,39.25
2023-05-26T02:52:07.299Z,39.99
2023-05-26T02:53:07.400Z,39.99
2023-05-26T02:54:07.614Z,39.77
2023-05-26T02:55:07.649Z,39.21
2023-05-26T02:56:07.821Z,39.92
2023-05-26T02:57:07.893Z,39.25
2023-05-26T02:58:08.062Z,38.99
2023-05-26T02:59:08.159Z,38.78
2023-05-26T03:00:08.315Z,37.90
2023-05-26T03:01:08.550Z,38.32
2023-05-26T03:02:08.600Z,39.47
2023-05-26T03:03:08.889Z,40.34
2023-05-26T03:04:08.889Z,40.77
2023-05-26T03:05:09.016Z,40.77
2023-05-26T03:06:09.086Z,41.13
2023-05-26T03:07:09.247Z,40.77
2023-05-26T03:08:09.417Z,39.47
2023-05-26T03:09:09.491Z,39.17
2023-05-26T03:10:09.638Z,37.97
2023-05-26T03:11:11.576Z,37.37
2023-05-26T03:12:09.898Z,37.43
2023-05-26T03:13:10.068Z,37.17
2023-05-26T03:14:10.165Z,36.71
2023-05-26T03:15:10.298Z,37.50
2023-05-26T03:16:10.449Z,37.23
2023-05-26T03:17:10.577Z,36.94
2023-05-26T03:18:10.686Z,37.60
2023-05-26T03:19:10.782Z,37.90
2023-05-26T03:20:10.933Z,37.50
2023-05-26T03:21:47.030Z,37.87
2023-05-26T03:22:40.674Z,38.25
2023-05-26T03:23:12.369Z,38.60
2023-05-26T03:24:11.420Z,39.17
2023-05-26T03:25:11.567Z,38.53
2023-05-26T03:26:11.734Z,38.42
2023-05-26T03:27:13.390Z,37.43
2023-05-26T03:28:11.960Z,38.01
2023-05-26T03:29:12.103Z,36.94
2023-05-26T03:30:12.246Z,37.60
2023-05-26T03:31:12.481Z,38.18
2023-05-26T03:32:12.516Z,37.77
2023-05-26T03:33:12.650Z,37.70
2023-05-26T03:34:12.786Z,36.05
2023-05-26T03:35:12.887Z,35.06
2023-05-26T03:36:13.065Z,34.83
2023-05-26T03:37:13.174Z,35.42
2023-05-26T03:38:13.286Z,35.72
2023-05-26T03:39:13.404Z,35.56
2023-05-26T03:40:13.515Z,35.78
2023-05-26T03:41:13.689Z,35.21
2023-05-26T03:42:13.765Z,35.42
2023-05-26T03:43:13.897Z,35.24
2023-05-26T03:44:14.020Z,34.69
2023-05-26T03:45:14.159Z,36.24
2023-05-26T03:46:14.402Z,36.33
2023-05-26T03:47:14.434Z,36.58
2023-05-26T03:48:14.574Z,37.04
2023-05-26T03:49:14.706Z,37.04
2023-05-26T03:50:14.895Z,36.74
2023-05-26T03:51:14.996Z,36.24
2023-05-26T03:52:15.123Z,35.69
2023-05-26T03:53:15.201Z,35.44
2023-05-26T03:54:15.338Z,35.62
2023-05-26T03:55:15.471Z,35.12
2023-05-26T03:56:15.657Z,34.32
2023-05-26T03:57:15.751Z,35.00
2023-05-26T03:58:15.886Z,35.90
2023-05-26T03:59:16.009Z,35.42
2023-05-26T04:00:16.168Z,34.49
2023-05-26T04:01:16.278Z,33.88
2023-05-26T04:02:16.442Z,33.23
2023-05-26T04:03:16.542Z,33.47
2023-05-26T04:04:16.675Z,31.87
2023-05-26T04:05:16.767Z,32.34
2023-05-26T04:06:16.910Z,31.83
2023-05-26T04:07:17.046Z,31.19
2023-05-26T04:08:17.211Z,30.78
2023-05-26T04:09:17.305Z,30.38
2023-05-26T04:10:17.436Z,30.14
2023-05-26T04:11:17.589Z,30.38
2023-05-26T04:12:17.750Z,30.01
2023-05-26T04:13:17.917Z,30.31
2023-05-26T04:14:17.990Z,31.33
2023-05-26T04:15:18.121Z,31.47
2023-05-26T04:16:18.319Z,31.37
2023-05-26T04:17:18.386Z,31.63
2023-05-26T04:18:18.569Z,31.28
2023-05-26T04:19:18.641Z,31.54
2023-05-26T04:20:18.847Z,31.80
2023-05-26T04:21:18.894Z,31.28
2023-05-26T04:22:19.048Z,31.70
2023-05-26T04:23:19.202Z,33.13
2023-05-26T04:24:19.285Z,33.44
2023-05-26T04:25:19.460Z,33.00
2023-05-26T04:26:19.555Z,32.79
2023-05-26T04:27:19.683Z,32.29
2023-05-26T04:28:19.806Z,32.87
2023-05-26T04:29:19.981Z,32.92
2023-05-26T04:30:20.129Z,31.85
2023-05-26T04:31:20.293Z,32.39
2023-05-26T04:32:20.440Z,32.26
2023-05-26T04:33:20.482Z,32.44
2023-05-26T04:34:20.606Z,31.07
2023-05-26T04:35:20.833Z,31.14
2023-05-26T04:36:20.876Z,31.35
2023-05-26T04:37:21.017Z,30.71
2023-05-26T04:38:21.144Z,30.16
2023-05-26T04:39:21.251Z,30.44
2023-05-26T04:40:21.428Z,30.71
2023-05-26T04:41:21.522Z,31.03
2023-05-26T04:42:21.709Z,30.98
2023-05-26T04:43:21.809Z,30.44
2023-05-26T04:44:21.968Z,29.59
2023-05-26T04:45:22.076Z,29.30
2023-05-26T04:46:22.299Z,29.65
2023-05-26T04:47:22.361Z,28.41
2023-05-26T04:48:22.442Z,28.07
2023-05-26T04:49:22.566Z,28.45
2023-05-26T04:50:22.769Z,28.37
2023-05-26T04:51:22.865Z,27.52
2023-05-26T04:52:23.009Z,27.35
2023-05-26T04:53:23.116Z,27.34
2023-05-26T04:54:23.321Z,29.02
2023-05-26T04:55:23.407Z,29.97
2023-05-26T04:56:23.505Z,28.92
2023-05-26T04:57:23.686Z,28.94
2023-05-26T04:58:23.756Z,29.61
2023-05-26T04:59:23.921Z,30.25
2023-05-26T05:00:24.077Z,30.91
2023-05-26T05:01:24.253Z,30.89
2023-05-26T05:02:24.401Z,30.71
2023-05-26T05:03:24.503Z,31.59
2023-05-26T05:04:24.588Z,32.31
2023-05-26T05:05:24.724Z,33.08
2023-05-26T05:06:24.797Z,34.12
2023-05-26T05:07:24.964Z,34.32
2023-05-26T05:08:25.373Z,34.04
2023-05-26T05:09:25.191Z,32.87
2023-05-26T05:10:25.351Z,31.73
2023-05-26T05:11:25.456Z,31.87
2023-05-26T05:12:25.607Z,31.92
2023-05-26T05:13:25.752Z,32.64
2023-05-26T05:14:25.858Z,34.54
2023-05-26T05:15:25.939Z,35.21
2023-05-26T05:16:26.109Z,35.72
2023-05-26T05:17:26.217Z,35.56
2023-05-26T05:18:26.361Z,36.33
2023-05-26T05:19:26.501Z,37.80
2023-05-26T05:20:26.624Z,38.46
2023-05-26T05:21:26.813Z,38.92
2023-05-26T05:22:26.889Z,38.18
2023-05-26T05:23:27.003Z,37.30
2023-05-26T05:24:27.141Z,35.87
2023-05-26T05:25:27.614Z,36.27
2023-05-26T05:26:27.422Z,35.84
2023-05-26T05:27:27.546Z,35.87
2023-05-26T05:28:27.701Z,37.00
2023-05-26T05:29:27.827Z,37.90
2023-05-26T05:30:27.998Z,37.23
2023-05-26T05:31:28.103Z,36.15
2023-05-26T05:32:28.327Z,36.30
2023-05-26T05:33:28.433Z,36.30
2023-05-26T05:34:28.501Z,37.17
2023-05-26T05:35:28.653Z,38.35
2023-05-26T05:36:28.779Z,39.80
2023-05-26T05:37:28.877Z,40.61
2023-05-26T05:38:29.018Z,42.28
2023-05-26T05:39:29.152Z,42.97
2023-05-26T05:40:29.393Z,41.57
2023-05-26T05:41:29.988Z,40.57
2023-05-26T05:42:29.600Z,40.85
2023-05-26T05:43:29.696Z,41.57
2023-05-26T05:44:29.839Z,43.06
2023-05-26T05:45:29.979Z,44.47
2023-05-26T05:46:30.202Z,44.76
2023-05-26T05:47:30.279Z,45.48
2023-05-26T05:48:30.348Z,44.66
2023-05-26T05:49:30.481Z,45.05
2023-05-26T05:50:30.643Z,44.62
2023-05-26T05:51:30.767Z,44.90
2023-05-26T05:52:30.925Z,46.49
2023-05-26T05:53:31.043Z,47.84
2023-05-26T05:54:31.176Z,48.22
2023-05-26T05:55:31.345Z,49.27
2023-05-26T05:56:31.497Z,48.22
2023-05-26T05:57:31.758Z,47.89
2023-05-26T05:58:31.709Z,45.48
2023-05-26T05:59:31.862Z,47.22
2023-05-26T06:00:31.971Z,47.95
2023-05-26T06:01:32.106Z,48.50
2023-05-26T06:02:32.340Z,48.84
2023-05-26T06:03:32.565Z,49.91
2023-05-26T06:04:32.536Z,49.59
2023-05-26T06:05:32.626Z,47.62
2023-05-26T06:06:32.761Z,46.03
2023-05-26T06:07:32.893Z,48.72
2023-05-26T06:08:33.057Z,49.82
2023-05-26T06:09:33.176Z,50.60
2023-05-26T06:10:33.342Z,51.12
2023-05-26T06:11:33.445Z,51.38
2023-05-26T06:12:33.600Z,50.76
2023-05-26T06:13:33.710Z,50.21
2023-05-26T06:14:33.869Z,49.10
2023-05-26T06:15:33.968Z,48.90
2023-05-26T06:16:34.125Z,47.97
2023-05-26T06:17:34.277Z,48.33
2023-05-26T06:18:34.340Z,48.95
2023-05-26T06:19:34.519Z,47.78
2023-05-26T06:20:34.668Z,47.67
2023-05-26T06:21:34.752Z,48.50
2023-05-26T06:22:34.883Z,49.01
2023-05-26T06:23:35.013Z,48.28
2023-05-26T06:24:35.222Z,48.42
2023-05-26T06:25:35.255Z,50.27
2023-05-26T06:26:35.381Z,50.30
2023-05-26T06:27:35.522Z,48.64
2023-05-26T06:28:35.672Z,48.44
2023-05-26T06:29:35.793Z,49.79
2023-05-26T06:30:35.892Z,51.19
2023-05-26T06:31:36.087Z,50.39
2023-05-26T06:32:36.200Z,50.21
2023-05-26T06:33:36.329Z,48.36
2023-05-26T06:34:36.482Z,47.14
2023-05-26T06:35:36.579Z,45.44
2023-05-26T06:36:36.743Z,45.88
2023-05-26T06:37:36.890Z,47.35
2023-05-26T06:38:36.984Z,47.17
2023-05-26T06:39:37.075Z,45.63
2023-05-26T06:40:37.237Z,48.56
2023-05-26T06:41:37.361Z,50.45
2023-05-26T06:42:37.492Z,52.73
2023-05-26T06:43:37.627Z,55.08
2023-05-26T06:44:37.786Z,56.52
2023-05-26T06:45:37.947Z,58.73
2023-05-26T06:46:38.113Z,58.90
2023-05-26T06:47:38.337Z,60.16
2023-05-26T06:48:38.298Z,60.86
2023-05-26T06:49:38.444Z,61.53
2023-05-26T06:50:38.629Z,62.67
2023-05-26T06:51:38.722Z,64.11
2023-05-26T06:52:38.852Z,64.80
2023-05-26T06:53:39.010Z,65.10
2023-05-26T06:54:39.124Z,63.96
2023-05-26T06:55:39.306Z,64.11
2023-05-26T06:56:39.394Z,63.77
2023-05-26T06:57:39.550Z,61.62
2023-05-26T06:58:39.687Z,61.57
2023-05-26T06:59:39.828Z,59.23
2023-05-26T07:00:39.973Z,58.69
2023-05-26T07:01:40.114Z,58.37
2023-05-26T07:02:40.275Z,62.40
2023-05-26T07:03:40.341Z,64.45
2023-05-26T07:04:40.472Z,65.92
2023-05-26T07:05:41.289Z,66.49
2023-05-26T07:06:47.099Z,67.18
2023-05-26T07:07:41.861Z,69.75
2023-05-26T07:08:40.977Z,68.72
2023-05-26T07:09:41.121Z,69.98
2023-05-26T07:10:41.222Z,68.83
2023-05-26T07:11:41.362Z,67.34
2023-05-26T07:12:41.466Z,66.39
2023-05-26T07:13:41.550Z,65.51
2023-05-26T07:14:41.701Z,64.26
2023-05-26T07:15:41.798Z,62.91
2023-05-26T07:16:41.988Z,62.72
2023-05-26T07:17:42.099Z,62.58
2023-05-26T07:18:42.161Z,61.04
2023-05-26T07:19:42.290Z,58.29
2023-05-26T07:20:42.502Z,60.33
2023-05-26T07:21:42.551Z,60.42
2023-05-26T07:22:42.678Z,61.35
2023-05-26T07:23:42.778Z,63.87
2023-05-26T07:24:42.869Z,62.17
2023-05-26T07:25:43.010Z,59.10
2023-05-26T07:26:43.159Z,61.17
2023-05-26T07:27:43.344Z,62.53
2023-05-26T07:28:43.417Z,65.30
2023-05-26T07:29:43.510Z,67.56
2023-05-26T07:30:43.741Z,66.92
2023-05-26T07:31:43.765Z,67.45
2023-05-26T07:32:44.039Z,65.00
2023-05-26T07:33:44.047Z,63.82
2023-05-26T07:34:44.146Z,66.33
2023-05-26T07:35:44.471Z,67.40
2023-05-26T07:36:44.361Z,68.33
2023-05-26T07:37:44.466Z,69.63
2023-05-26T07:38:44.575Z,71.59
2023-05-26T07:39:44.691Z,70.63
2023-05-26T07:40:44.805Z,71.41
2023-05-26T07:41:44.921Z,73.40
2023-05-26T07:42:45.015Z,72.51
2023-05-26T07:43:45.179Z,69.06
2023-05-26T07:44:45.258Z,67.18
2023-05-26T07:45:45.632Z,68.61
2023-05-26T07:46:45.559Z,69.52
2023-05-26T07:47:45.628Z,66.81
2023-05-26T07:48:45.726Z,64.70
2023-05-26T07:49:45.848Z,62.35
2023-05-26T07:50:46.088Z,63.38
2023-05-26T07:51:46.049Z,63.43
2023-05-26T07:52:46.146Z,62.72
2023-05-26T07:53:46.296Z,62.77
2023-05-26T07:54:46.407Z,63.62
2023-05-26T07:55:46.697Z,66.13
2023-05-26T07:56:46.572Z,66.86
2023-05-26T07:57:46.657Z,67.89
2023-05-26T07:58:46.755Z,63.82
2023-05-26T07:59:46.982Z,60.55
2023-05-26T08:00:47.056Z,59.91
2023-05-26T08:01:47.166Z,61.39
2023-05-26T08:02:47.398Z,62.40
2023-05-26T08:03:47.460Z,61.66
2023-05-26T08:04:47.549Z,64.65
2023-05-26T08:05:48.041Z,67.72
2023-05-26T08:06:47.804Z,70.33
2023-05-26T08:07:47.915Z,71.35
2023-05-26T08:08:48.030Z,71.10
2023-05-26T08:09:48.123Z,69.81
2023-05-26T08:10:48.259Z,69.52
2023-05-26T08:11:48.345Z,70.80
2023-05-26T08:12:48.473Z,69.12
2023-05-26T08:13:48.586Z,67.40
2023-05-26T08:14:48.690Z,66.60
2023-05-26T08:15:49.161Z,69.52
2023-05-26T08:16:48.885Z,71.59
2023-05-26T08:17:48.998Z,70.63
2023-05-26T08:18:49.090Z,68.50
2023-05-26T08:19:49.195Z,69.06
2023-05-26T08:20:50.853Z,70.51
2023-05-26T08:21:49.417Z,70.63
2023-05-26T08:22:49.516Z,71.35
2023-05-26T08:23:49.647Z,72.58
2023-05-26T08:24:49.751Z,73.08
2023-05-26T08:25:49.906Z,73.27
2023-05-26T08:26:50.063Z,74.31
2023-05-26T08:27:50.142Z,75.38
2023-05-26T08:28:50.316Z,75.11
2023-05-26T08:29:50.421Z,72.14
2023-05-26T08:30:50.618Z,71.29
2023-05-26T08:31:50.680Z,68.61
2023-05-26T08:32:50.846Z,65.46
2023-05-26T08:33:50.874Z,67.94
2023-05-26T08:34:50.979Z,69.23
2023-05-26T08:35:51.794Z,66.97
2023-05-26T08:36:51.206Z,67.45
2023-05-26T08:37:51.388Z,69.17
2023-05-26T08:38:51.492Z,70.10
2023-05-26T08:39:51.621Z,62.49
2023-05-26T08:40:51.725Z,62.96
2023-05-26T08:41:51.876Z,62.96
2023-05-26T08:42:52.018Z,64.95
2023-05-26T08:44:05.316Z,65.82
2023-05-26T08:44:53.226Z,69.63
2023-05-26T08:45:52.375Z,71.29
2023-05-26T08:46:52.475Z,76.47
2023-05-26T08:47:53.360Z,80.12
2023-05-26T08:48:52.705Z,80.12
2023-05-26T08:49:52.846Z,79.06
2023-05-26T08:50:52.991Z,76.40
2023-05-26T08:51:53.147Z,76.54
2023-05-26T08:53:54.349Z,78.40
2023-05-26T08:54:53.432Z,79.29
2023-05-26T08:55:53.574Z,79.74
2023-05-26T08:56:53.724Z,81.83
2023-05-26T08:57:53.840Z,83.05
2023-05-26T08:58:53.984Z,84.21
2023-05-26T08:59:54.079Z,81.51
2023-05-26T09:00:54.185Z,79.74
2023-05-26T09:01:54.332Z,82.56
2023-05-26T09:02:54.617Z,83.21
2023-05-26T09:03:54.590Z,84.46
2023-05-26T09:04:54.667Z,83.62
2023-05-26T09:05:54.826Z,83.21
2023-05-26T09:07:09.352Z,80.89
2023-05-26T09:07:56.085Z,82.47
2023-05-26T09:08:55.161Z,86.29
2023-05-26T09:09:55.252Z,91.75
2023-05-26T09:10:55.404Z,92.66
2023-05-26T09:11:57.009Z,94.85
2023-05-26T09:12:55.637Z,94.64
2023-05-26T09:13:55.854Z,94.82
2023-05-26T09:14:55.922Z,91.85
2023-05-26T09:16:06.162Z,91.55
2023-05-26T09:16:57.174Z,94.64
2023-05-26T09:17:56.287Z,93.87
2023-05-26T09:18:56.435Z,93.58
2023-05-26T09:19:56.608Z,89.50
2023-05-26T09:20:56.684Z,84.98
2023-05-26T09:21:56.748Z,86.29
2023-05-26T09:22:56.885Z,86.20
2023-05-26T09:23:57.213Z,84.29
2023-05-26T09:24:57.160Z,82.88
2023-05-26T09:25:57.272Z,84.81
2023-05-26T09:26:57.386Z,88.19
2023-05-26T09:27:57.487Z,90.27
2023-05-26T09:28:57.649Z,90.95
2023-05-26T09:29:57.775Z,93.17
2023-05-26T09:30:57.916Z,95.39
2023-05-26T09:31:58.007Z,94.11
2023-05-26T09:32:58.176Z,93.27
2023-05-26T09:33:58.281Z,89.60
2023-05-26T09:34:58.446Z,90.66
2023-05-26T09:35:58.506Z,90.46
2023-05-26T09:36:58.609Z,90.76
2023-05-26T09:37:58.720Z,93.79
2023-05-26T09:38:58.864Z,94.00
2023-05-26T09:39:58.973Z,93.69
2023-05-26T09:40:59.079Z,94.53
2023-05-26T09:41:59.179Z,89.79
2023-05-26T09:42:59.299Z,81.83
2023-05-26T09:43:59.391Z,82.47
2023-05-26T09:44:59.558Z,81.60
2023-05-26T09:45:59.667Z,82.72
2023-05-26T09:46:59.819Z,84.04
2023-05-26T09:47:59.988Z,82.96
2023-05-26T09:49:00.046Z,81.91
2023-05-26T09:50:00.266Z,82.96
2023-05-26T09:51:00.273Z,80.50
2023-05-26T09:52:12.138Z,78.69
2023-05-26T09:53:01.547Z,77.53
2023-05-26T09:54:00.618Z,75.92
2023-05-26T09:55:00.750Z,74.05
2023-05-26T09:56:00.845Z,82.31
2023-05-26T09:57:00.970Z,88.09
2023-05-26T09:58:01.121Z,90.85
2023-05-26T09:59:01.240Z,90.07
2023-05-26T10:00:01.423Z,90.66
2023-05-26T10:01:01.574Z,89.21
2023-05-26T10:02:01.677Z,89.60
2023-05-26T10:03:01.782Z,90.46
2023-05-26T10:04:01.900Z,84.46
2023-05-26T10:05:02.118Z,84.13
2023-05-26T10:06:02.376Z,80.12
2023-05-26T10:07:02.276Z,78.84
2023-05-26T10:08:02.368Z,76.75
2023-05-26T10:09:02.478Z,77.32
2023-05-26T10:10:02.610Z,81.28
2023-05-26T10:11:02.779Z,83.71
2023-05-26T10:12:03.345Z,84.21
2023-05-26T10:13:02.960Z,85.32
2023-05-26T10:14:03.099Z,84.98
2023-05-26T10:15:03.176Z,87.82
2023-05-26T10:16:03.359Z,85.84
2023-05-26T10:17:03.431Z,87.00
2023-05-26T10:18:03.562Z,86.82
2023-05-26T10:19:03.657Z,88.37
2023-05-26T10:20:03.892Z,88.93
2023-05-26T10:21:03.916Z,88.93
2023-05-26T10:22:04.004Z,89.21
2023-05-26T10:23:04.146Z,90.46
2023-05-26T10:24:04.267Z,87.82
2023-05-26T10:25:04.465Z,80.58
2023-05-26T10:26:04.497Z,77.96
2023-05-26T10:27:04.642Z,77.03
2023-05-26T10:28:04.740Z,79.81
2023-05-26T10:29:04.881Z,79.59
2023-05-26T10:30:05.014Z,82.80
2023-05-26T10:31:05.157Z,87.82
2023-05-26T10:32:05.269Z,88.28
2023-05-26T10:33:05.456Z,90.66
2023-05-26T10:34:05.518Z,92.05
2023-05-26T10:35:05.659Z,93.79
2023-05-26T10:36:05.869Z,92.05
2023-05-26T10:37:05.910Z,92.25
2023-05-26T10:38:06.097Z,93.07
2023-05-26T10:39:06.192Z,92.05
2023-05-26T10:40:06.297Z,96.29
2023-05-26T10:41:06.531Z,98.15
2023-05-26T10:42:06.516Z,98.78
2023-05-26T10:43:06.665Z,95.63
2023-05-26T10:44:06.802Z,92.05
2023-05-26T10:45:08.533Z,94.85
2023-05-26T10:46:07.036Z,87.00
2023-05-26T10:47:07.136Z,89.03
2023-05-26T10:48:07.272Z,94.21
2023-05-26T10:49:07.395Z,94.50
2023-05-26T10:50:07.511Z,93.90
2023-05-26T10:51:07.634Z,95.80
2023-05-26T10:52:07.721Z,91.25
2023-05-26T10:53:07.817Z,87.27
2023-05-26T10:54:08.028Z,88.46
2023-05-26T10:55:08.106Z,89.03
2023-05-26T10:56:08.242Z,94.96
2023-05-26T10:57:08.364Z,93.87
2023-05-26T10:58:08.475Z,94.72
2023-05-26T10:59:08.566Z,97.46
2023-05-26T11:00:08.686Z,100.97
2023-05-26T11:01:08.911Z,103.21
2023-05-26T11:02:09.095Z,99.78
2023-05-26T11:03:09.084Z,96.79
2023-05-26T11:04:09.180Z,95.20
2023-05-26T11:05:09.241Z,92.35
2023-05-26T11:06:09.325Z,93.38
2023-05-26T11:07:09.656Z,88.00
2023-05-26T11:08:09.813Z,86.11
2023-05-26T11:09:09.760Z,86.37
2023-05-26T11:10:09.854Z,92.96
2023-05-26T11:11:09.948Z,87.72
2023-05-26T11:12:10.084Z,85.15
2023-05-26T11:13:10.185Z,87.54
2023-05-26T11:14:10.352Z,91.65
2023-05-26T11:15:10.411Z,94.50
2023-05-26T11:16:10.542Z,93.77
2023-05-26T11:17:10.748Z,94.40
2023-05-26T11:18:10.882Z,92.05
2023-05-26T11:19:10.910Z,94.11
2023-05-26T11:20:12.889Z,95.42
2023-05-26T11:21:11.210Z,96.68
2023-05-26T11:22:11.333Z,89.03
2023-05-26T11:23:11.460Z,90.56
2023-05-26T11:24:11.526Z,92.35
2023-05-26T11:25:11.642Z,92.86
2023-05-26T11:26:11.764Z,93.61
2023-05-26T11:27:12.004Z,99.25
2023-05-26T11:28:12.071Z,97.86
2023-05-26T11:29:12.146Z,94.77
2023-05-26T11:30:12.294Z,96.29
2023-05-26T11:31:12.461Z,99.25
2023-05-26T11:32:12.606Z,93.61
2023-05-26T11:33:12.739Z,94.64
2023-05-26T11:34:12.756Z,99.84
2023-05-26T11:35:12.865Z,100.31
2023-05-26T11:36:12.991Z,102.39
2023-05-26T11:37:13.156Z,107.02
2023-05-26T11:38:13.236Z,109.46
2023-05-26T11:39:13.348Z,101.71
2023-05-26T11:40:13.437Z,100.67
2023-05-26T11:41:13.661Z,102.14
2023-05-26T11:42:13.654Z,102.83
2023-05-26T11:43:13.811Z,107.98
2023-05-26T11:44:13.931Z,112.76
2023-05-26T11:45:14.029Z,108.05
2023-05-26T11:46:14.163Z,106.75
2023-05-26T11:47:14.835Z,110.03
2023-05-26T11:48:15.252Z,113.37
2023-05-26T11:49:14.496Z,113.44
2023-05-26T11:50:14.586Z,117.32
2023-05-26T11:51:14.718Z,117.00
2023-05-26T11:52:14.790Z,109.24
2023-05-26T11:53:14.898Z,109.89
2023-05-26T11:54:16.218Z,107.15
2023-05-26T11:55:15.128Z,111.19
2023-05-26T11:56:15.266Z,119.41
2023-05-26T11:57:15.381Z,122.27
2023-05-26T11:58:15.510Z,119.41
2023-05-26T11:59:15.625Z,123.71
2023-05-26T12:00:15.748Z,128.24
2023-05-26T12:01:15.844Z,126.79
2023-05-26T12:02:16.061Z,126.22
2023-05-26T12:03:16.136Z,129.03
2023-05-26T12:04:16.323Z,129.13
2023-05-26T12:05:16.332Z,130.53
2023-05-26T12:06:16.439Z,128.93
2023-05-26T12:07:16.535Z,125.94
2023-05-26T12:08:16.658Z,122.99
2023-05-26T12:09:16.762Z,116.19
2023-05-26T12:10:16.937Z,118.23
2023-05-26T12:11:17.024Z,120.87
2023-05-26T12:12:17.154Z,122.18
2023-05-26T12:13:17.240Z,126.03
2023-05-26T12:14:17.425Z,116.75
2023-05-26T12:15:17.472Z,120.43
2023-05-26T12:16:17.616Z,124.08
2023-05-26T12:17:17.750Z,131.24
2023-05-26T12:18:17.942Z,135.69
2023-05-26T12:19:17.975Z,135.48
2023-05-26T12:20:31.852Z,137.47
2023-05-26T12:21:19.210Z,137.13
2023-05-26T12:22:18.458Z,136.57
2023-05-26T12:23:18.482Z,142.00
2023-05-26T12:24:18.618Z,138.15
2023-05-26T12:25:18.742Z,131.35
2023-05-26T12:26:18.879Z,129.33
2023-05-26T12:27:18.975Z,130.84
2023-05-26T12:28:19.085Z,124.63
2023-05-26T12:29:19.200Z,125.37
2023-05-26T12:30:19.393Z,123.53
2023-05-26T12:31:19.455Z,123.08
2023-05-26T12:32:19.562Z,126.03
2023-05-26T12:33:19.652Z,126.79
2023-05-26T12:34:19.835Z,130.33
2023-05-26T12:35:19.940Z,130.63
2023-05-26T12:36:20.040Z,131.76
2023-05-26T12:37:20.162Z,119.92
2023-05-26T12:38:20.259Z,115.47
2023-05-26T12:39:20.457Z,124.26
2023-05-26T12:40:20.523Z,133.54
2023-05-26T12:41:20.636Z,142.48
2023-05-26T12:42:20.749Z,144.56
2023-05-26T12:43:20.846Z,130.33
2023-05-26T12:44:20.995Z,132.80
2023-05-26T12:45:21.170Z,139.18
2023-05-26T12:46:21.231Z,140.81
2023-05-26T12:47:21.367Z,138.72
2023-05-26T12:48:21.491Z,136.69
2023-05-26T12:49:21.675Z,143.70
2023-05-26T12:50:21.893Z,145.31
2023-05-26T12:51:21.818Z,140.46
2023-05-26T12:52:21.972Z,138.83
2023-05-26T12:53:22.108Z,145.44